Terminal Aerodrome Forecast
Issued by NWS

Current Version | Previous Version | Graphics & Text | Print | Product List | Glossary On
Versions: 1 2 3 4 5 6 7 8 9 10 11 12 13 14 15 16 17 18 19 20
989
FTUS41 KILN 071738
TAFLUK
TAF
KLUK 071738Z 0718/0818 21010G18KT P6SM SCT150 BKN250
     FM072200 21006KT P6SM BKN120
     FM080300 21003KT P6SM VCSH BKN050 OVC120
     FM080600 23003KT P6SM SCT025 OVC035
     FM081500 27008KT P6SM VCSH SCT050 BKN100=

USA.gov is the U.S. government's official web portal to all federal, state and local government web resources and services.